createdAt,value
2017-10-24T00:00:00.511Z,25.30
2017-10-24T00:02:26.734Z,24.30
2017-10-24T00:04:53.015Z,21.87
2017-10-24T00:07:19.221Z,24.80
2017-10-24T00:09:46.196Z,24.43
2017-10-24T00:12:12.491Z,22.90
2017-10-24T00:14:38.744Z,24.10
2017-10-24T00:17:05.685Z,22.37
2017-10-24T00:19:31.970Z,21.20
2017-10-24T00:21:58.219Z,20.97
2017-10-24T00:24:25.201Z,21.93
2017-10-24T00:26:51.468Z,21.80
2017-10-24T00:29:17.707Z,22.33
2017-10-24T00:31:43.912Z,21.20
2017-10-24T00:34:10.206Z,21.70
2017-10-24T00:36:36.456Z,21.20
2017-10-24T00:39:02.759Z,21.23
2017-10-24T00:41:28.962Z,21.77
2017-10-24T00:43:56.045Z,22.30
2017-10-24T00:46:22.287Z,20.97
2017-10-24T00:48:48.571Z,20.90
2017-10-24T00:51:15.527Z,20.13
2017-10-24T00:53:42.548Z,20.00
2017-10-24T00:56:09.567Z,21.07
2017-10-24T00:58:35.787Z,20.00
2017-10-24T01:01:02.166Z,21.20
2017-10-24T01:03:28.394Z,21.70
2017-10-24T01:05:55.412Z,21.50
2017-10-24T01:08:21.648Z,21.40
2017-10-24T01:10:48.704Z,21.87
2017-10-24T01:13:15.658Z,21.67
2017-10-24T01:15:42.649Z,22.50
2017-10-24T01:18:08.839Z,21.97
2017-10-24T01:20:35.879Z,22.80
2017-10-24T01:23:02.219Z,21.50
2017-10-24T01:25:29.215Z,22.20
2017-10-24T01:27:55.471Z,21.87
2017-10-24T01:30:21.799Z,21.40
2017-10-24T01:32:48.844Z,22.63
2017-10-24T01:35:15.907Z,20.13
2017-10-24T01:37:42.955Z,21.57
2017-10-24T01:40:10.088Z,22.30
2017-10-24T01:42:36.384Z,21.77
2017-10-24T01:45:02.748Z,21.80
2017-10-24T01:47:29.181Z,21.80
2017-10-24T01:49:55.472Z,21.37
2017-10-24T01:52:21.839Z,21.30
2017-10-24T01:54:48.123Z,22.40
2017-10-24T01:57:14.416Z,22.63
2017-10-24T01:59:41.493Z,21.30
2017-10-24T02:02:07.777Z,19.87
2017-10-24T02:04:34.819Z,20.53
2017-10-24T02:07:01.839Z,21.50
2017-10-24T02:09:28.063Z,21.80
2017-10-24T02:11:54.297Z,19.20
2017-10-24T02:14:20.562Z,19.90
2017-10-24T02:16:47.599Z,20.20
2017-10-24T02:19:14.566Z,20.50
2017-10-24T02:21:41.601Z,20.13
2017-10-24T02:24:07.854Z,20.67
2017-10-24T02:26:34.089Z,20.57
2017-10-24T02:29:00.369Z,22.53
2017-10-24T02:31:26.742Z,17.83
2017-10-24T02:33:53.014Z,21.40
2017-10-24T02:36:19.426Z,22.00
2017-10-24T02:38:45.763Z,21.00
2017-10-24T02:41:12.046Z,20.83
2017-10-24T02:43:39.048Z,19.63
2017-10-24T02:46:12.239Z,20.47
2017-10-24T02:48:38.488Z,20.40
2017-10-24T02:51:04.767Z,23.53
2017-10-24T02:53:31.004Z,20.70
2017-10-24T02:55:57.264Z,20.50
2017-10-24T02:58:23.471Z,21.23
2017-10-24T03:00:49.725Z,19.70
2017-10-24T03:03:16.705Z,22.00
2017-10-24T03:05:42.998Z,20.80
2017-10-24T03:08:09.253Z,18.67
2017-10-24T03:10:36.211Z,21.23
2017-10-24T03:13:03.248Z,22.40
2017-10-24T03:15:29.476Z,22.50
2017-10-24T03:17:56.443Z,20.23
2017-10-24T03:20:22.683Z,21.70
2017-10-24T03:22:48.958Z,22.20
2017-10-24T03:25:15.204Z,23.50
2017-10-24T03:27:42.194Z,22.10
2017-10-24T03:30:08.557Z,21.47
2017-10-24T03:32:34.883Z,20.93
2017-10-24T03:35:01.096Z,20.87
2017-10-24T03:37:27.319Z,19.53
2017-10-24T03:39:53.531Z,20.60
2017-10-24T03:42:19.771Z,19.50
2017-10-24T03:44:46.071Z,18.93
2017-10-24T03:47:12.383Z,19.03
2017-10-24T03:49:39.337Z,20.83
2017-10-24T03:52:05.584Z,21.30
2017-10-24T03:54:31.799Z,19.70
2017-10-24T03:56:58.055Z,21.17
2017-10-24T03:59:24.259Z,22.60
2017-10-24T04:01:50.508Z,24.23
2017-10-24T04:04:16.777Z,24.10
2017-10-24T04:06:43.786Z,24.50
2017-10-24T04:09:10.015Z,23.23
2017-10-24T04:11:43.232Z,26.30
2017-10-24T04:14:09.462Z,25.47
2017-10-24T04:16:35.667Z,27.90
2017-10-24T04:19:01.935Z,27.90
2017-10-24T04:21:28.300Z,28.70
2017-10-24T04:23:54.544Z,22.27
2017-10-24T04:26:20.761Z,27.27
2017-10-24T04:28:47.019Z,28.10
2017-10-24T04:31:13.272Z,27.20
2017-10-24T04:33:40.400Z,26.80
2017-10-24T04:36:06.716Z,32.30
2017-10-24T04:38:34.466Z,29.60
2017-10-24T04:41:00.747Z,33.23
2017-10-24T04:43:27.708Z,36.97
2017-10-24T04:45:54.656Z,34.40
2017-10-24T04:48:20.995Z,31.30
2017-10-24T04:50:47.219Z,33.00
2017-10-24T04:53:13.459Z,30.60
2017-10-24T04:55:39.670Z,30.40
2017-10-24T04:58:06.664Z,25.60
2017-10-24T05:00:32.883Z,22.77
2017-10-24T05:02:59.214Z,24.90
2017-10-24T05:05:25.430Z,25.73
2017-10-24T05:07:51.688Z,23.07
2017-10-24T05:10:17.918Z,21.90
2017-10-24T05:12:44.159Z,22.33
2017-10-24T05:15:10.387Z,22.63
2017-10-24T05:17:36.607Z,21.30
2017-10-24T05:20:02.870Z,21.37
2017-10-24T05:22:29.166Z,19.60
2017-10-24T05:24:55.403Z,21.70
2017-10-24T05:27:22.334Z,21.23
2017-10-24T05:29:48.699Z,23.00
2017-10-24T05:32:14.953Z,19.93
2017-10-24T05:34:41.241Z,20.97
2017-10-24T05:37:08.259Z,20.27
2017-10-24T05:39:34.609Z,21.30
2017-10-24T05:42:00.975Z,20.00
2017-10-24T05:44:27.238Z,22.03
2017-10-24T05:46:53.494Z,24.00
2017-10-24T05:49:20.003Z,21.90
2017-10-24T05:51:46.435Z,22.23
2017-10-24T05:54:19.642Z,21.63
2017-10-24T05:56:46.586Z,22.40
2017-10-24T05:59:12.816Z,21.90
2017-10-24T06:01:39.043Z,25.10
2017-10-24T06:04:05.270Z,22.50
2017-10-24T06:06:31.511Z,24.07
2017-10-24T06:08:58.503Z,25.70
2017-10-24T06:11:24.701Z,25.03
2017-10-24T06:13:51.706Z,22.70
2017-10-24T06:16:17.958Z,31.20
2017-10-24T06:18:44.230Z,30.00
2017-10-24T06:21:10.422Z,31.40
2017-10-24T06:23:37.431Z,29.53
2017-10-24T06:26:04.406Z,32.20
2017-10-24T06:28:31.371Z,31.90
2017-10-24T06:30:58.372Z,33.17
2017-10-24T06:33:24.591Z,28.53
2017-10-24T06:35:50.810Z,33.90
2017-10-24T06:38:17.169Z,30.07
2017-10-24T06:40:43.448Z,30.80
2017-10-24T06:43:09.679Z,28.80
2017-10-24T06:45:35.906Z,28.30
2017-10-24T06:48:02.116Z,31.03
2017-10-24T06:50:28.334Z,32.40
2017-10-24T06:52:55.329Z,29.53
2017-10-24T06:55:21.564Z,31.43
2017-10-24T06:57:47.796Z,29.37
2017-10-24T07:00:14.043Z,25.50
2017-10-24T07:02:40.304Z,26.70
2017-10-24T07:05:06.678Z,26.70
2017-10-24T07:07:32.957Z,24.57
2017-10-24T07:09:59.284Z,24.60
2017-10-24T07:12:26.327Z,21.60
2017-10-24T07:14:53.322Z,20.20
2017-10-24T07:17:19.537Z,20.10
2017-10-24T07:19:45.766Z,19.53
2017-10-24T07:22:12.158Z,21.57
2017-10-24T07:24:38.509Z,21.70
2017-10-24T07:27:04.883Z,22.07
2017-10-24T07:29:31.228Z,18.57
2017-10-24T07:31:57.639Z,21.47
2017-10-24T07:34:24.045Z,21.60
2017-10-24T07:36:51.250Z,21.20
2017-10-24T07:39:17.672Z,21.37
2017-10-24T07:41:44.385Z,21.27
2017-10-24T07:44:11.455Z,21.93
2017-10-24T07:46:37.715Z,21.40
2017-10-24T07:49:04.714Z,23.00
2017-10-24T07:51:30.959Z,21.30
2017-10-24T07:53:57.200Z,22.33
2017-10-24T07:56:23.543Z,22.47
2017-10-24T07:58:49.789Z,20.20
2017-10-24T08:01:16.738Z,20.27
2017-10-24T08:03:42.962Z,22.10
2017-10-24T08:06:09.221Z,22.50
2017-10-24T08:08:35.437Z,20.80
2017-10-24T08:11:01.691Z,22.00
2017-10-24T08:13:28.363Z,22.43
2017-10-24T08:15:54.608Z,20.30
2017-10-24T08:18:21.550Z,20.70
2017-10-24T08:20:48.534Z,20.20
2017-10-24T08:23:14.738Z,21.63
2017-10-24T08:25:40.960Z,21.00
2017-10-24T08:28:08.238Z,21.60
2017-10-24T08:30:34.469Z,21.37
2017-10-24T08:33:00.675Z,21.27
2017-10-24T08:35:27.538Z,22.70
2017-10-24T08:37:53.798Z,21.13
2017-10-24T08:40:20.019Z,22.50
2017-10-24T08:42:46.247Z,21.30
2017-10-24T08:45:12.502Z,21.73
2017-10-24T08:47:39.518Z,23.67
2017-10-24T08:50:05.754Z,22.57
2017-10-24T08:52:32.219Z,22.23
2017-10-24T08:54:59.206Z,20.43
2017-10-24T08:57:25.460Z,22.67
2017-10-24T08:59:51.704Z,21.87
2017-10-24T09:02:17.951Z,19.17
2017-10-24T09:04:44.923Z,20.87
2017-10-24T09:07:14.981Z,19.70
2017-10-24T09:09:42.001Z,19.50
2017-10-24T09:12:10.036Z,19.50
2017-10-24T09:14:36.991Z,20.27
2017-10-24T09:17:03.254Z,18.37
2017-10-24T09:22:38.113Z,17.70
2017-10-24T09:25:05.086Z,17.10
2017-10-24T09:27:32.081Z,15.87
2017-10-24T09:29:58.334Z,16.50
2017-10-24T09:35:17.395Z,16.07
2017-10-24T09:37:43.649Z,15.23
2017-10-24T09:40:09.870Z,16.83
2017-10-24T09:42:36.123Z,16.90
2017-10-24T09:45:03.126Z,15.17
2017-10-24T09:47:29.390Z,14.87
2017-10-24T09:49:57.266Z,14.33
2017-10-24T09:52:24.326Z,13.40
2017-10-24T09:54:51.317Z,16.10
2017-10-24T09:57:18.357Z,17.83
2017-10-24T09:59:44.604Z,14.30
2017-10-24T10:02:10.862Z,15.30
2017-10-24T10:04:44.751Z,14.80
2017-10-24T10:07:11.774Z,16.73
2017-10-24T10:09:38.005Z,17.80
2017-10-24T10:12:08.753Z,17.27
2017-10-24T10:14:35.788Z,17.00
2017-10-24T10:17:02.035Z,14.80
2017-10-24T10:19:29.019Z,15.50
2017-10-24T10:21:55.295Z,15.33
2017-10-24T10:24:26.247Z,14.67
2017-10-24T10:26:53.270Z,15.13
2017-10-24T10:29:19.578Z,16.03
2017-10-24T10:31:45.867Z,15.73
2017-10-24T10:34:12.175Z,16.20
2017-10-24T10:36:39.234Z,23.37
2017-10-24T10:39:06.262Z,16.40
2017-10-24T10:41:32.505Z,15.70
2017-10-24T10:43:59.542Z,17.30
2017-10-24T10:46:26.503Z,16.10
2017-10-24T10:48:53.492Z,14.90
2017-10-24T10:51:19.952Z,14.17
2017-10-24T10:53:46.259Z,15.27
2017-10-24T10:56:12.495Z,14.90
2017-10-24T10:58:39.588Z,14.50
2017-10-24T11:01:06.657Z,13.10
2017-10-24T11:03:39.674Z,15.50
2017-10-24T11:06:21.303Z,15.77
2017-10-24T11:08:47.735Z,15.47
2017-10-24T11:11:14.766Z,15.00
2017-10-24T11:13:41.011Z,15.67
2017-10-24T11:16:07.990Z,15.00
2017-10-24T11:18:34.270Z,15.33
2017-10-24T11:21:00.843Z,15.20
2017-10-24T11:23:27.807Z,15.63
2017-10-24T11:25:54.060Z,16.17
2017-10-24T11:28:20.388Z,16.03
2017-10-24T11:30:47.089Z,13.10
2017-10-24T11:33:18.115Z,12.97
2017-10-24T11:35:44.523Z,11.53
2017-10-24T11:38:11.587Z,12.33
2017-10-24T11:40:38.570Z,10.90
2017-10-24T11:43:05.956Z,10.90
2017-10-24T11:45:32.242Z,10.70
2017-10-24T11:47:58.529Z,8.07
2017-10-24T11:50:25.335Z,8.37
2017-10-24T11:52:52.725Z,11.80
2017-10-24T11:55:19.758Z,8.40
2017-10-24T11:57:46.326Z,6.93
2017-10-24T12:00:13.483Z,6.70
2017-10-24T12:02:41.859Z,7.00
2017-10-24T12:05:10.419Z,7.37
2017-10-24T12:07:36.873Z,6.00
2017-10-24T12:10:09.548Z,5.70
2017-10-24T12:12:39.786Z,6.10
2017-10-24T12:15:07.264Z,6.17
2017-10-24T12:17:33.497Z,6.23
2017-10-24T12:19:59.748Z,6.00
2017-10-24T12:22:26.036Z,6.50
2017-10-24T12:24:52.339Z,5.80
2017-10-24T12:27:19.363Z,6.10
2017-10-24T12:29:45.694Z,6.87
2017-10-24T12:32:12.740Z,6.40
2017-10-24T12:34:41.962Z,6.50
2017-10-24T12:37:08.251Z,6.23
2017-10-24T12:39:34.555Z,6.20
2017-10-24T12:42:01.665Z,5.90
2017-10-24T12:44:31.574Z,6.40
2017-10-24T12:47:07.477Z,5.40
2017-10-24T12:49:36.701Z,5.77
2017-10-24T12:52:03.034Z,5.43
2017-10-24T12:54:29.395Z,5.17
2017-10-24T12:56:56.497Z,4.80
2017-10-24T12:59:25.775Z,5.20
2017-10-24T13:01:52.137Z,5.07
2017-10-24T13:04:18.511Z,5.70
2017-10-24T13:06:44.911Z,4.03
2017-10-24T13:09:11.564Z,5.10
2017-10-24T13:11:37.857Z,4.77
2017-10-24T13:14:04.203Z,5.20
2017-10-24T13:16:30.483Z,5.40
2017-10-24T13:18:56.857Z,5.40
2017-10-24T13:21:23.186Z,6.70
2017-10-24T13:23:49.675Z,6.27
2017-10-24T13:26:15.927Z,6.00
2017-10-24T13:28:42.225Z,6.10
2017-10-24T13:31:08.476Z,7.03
2017-10-24T13:33:34.707Z,6.63
2017-10-24T13:36:01.089Z,6.73
2017-10-24T13:38:27.374Z,7.60
2017-10-24T13:40:53.715Z,8.10
2017-10-24T13:43:20.051Z,8.43
2017-10-24T13:45:46.498Z,8.30
2017-10-24T13:48:12.837Z,8.90
2017-10-24T13:53:30.659Z,8.40
2017-10-24T13:55:57.862Z,10.03
2017-10-24T13:58:24.763Z,9.83
2017-10-24T14:03:23.200Z,10.70
2017-10-24T14:05:56.469Z,10.10
2017-10-24T14:08:28.899Z,12.03
2017-10-24T14:10:55.198Z,11.10
2017-10-24T14:13:22.199Z,12.43
2017-10-24T14:15:48.506Z,11.67
2017-10-24T14:18:14.736Z,11.97
2017-10-24T14:20:40.972Z,12.20
2017-10-24T14:23:07.335Z,13.07
2017-10-24T14:25:33.635Z,13.43
2017-10-24T14:27:59.904Z,12.20
2017-10-24T14:30:26.891Z,12.50
2017-10-24T14:32:53.121Z,12.27
2017-10-24T14:35:19.338Z,11.73
2017-10-24T14:37:45.551Z,11.70
2017-10-24T14:40:12.647Z,11.93
2017-10-24T14:42:45.443Z,11.70
2017-10-24T14:45:12.878Z,12.77
2017-10-24T14:47:40.706Z,12.50
2017-10-24T14:50:09.627Z,12.80
2017-10-24T14:52:36.659Z,11.43
2017-10-24T14:55:09.652Z,13.20
2017-10-24T14:57:36.949Z,13.77
2017-10-24T15:00:06.404Z,14.70
2017-10-24T15:02:36.531Z,15.03
2017-10-24T15:05:04.055Z,14.07
2017-10-24T15:07:31.296Z,14.97
2017-10-24T15:10:13.708Z,17.80
2017-10-24T15:12:40.980Z,16.40
2017-10-24T15:15:07.459Z,18.53
2017-10-24T15:17:34.193Z,18.40
2017-10-24T15:20:00.444Z,17.30
2017-10-24T15:22:26.828Z,18.97
2017-10-24T15:24:53.097Z,18.50
2017-10-24T15:27:19.411Z,20.30
2017-10-24T15:29:52.551Z,20.63
2017-10-24T15:32:18.803Z,17.90
2017-10-24T15:34:45.039Z,19.33
2017-10-24T15:37:11.291Z,19.20
2017-10-24T15:39:37.581Z,18.57
2017-10-24T15:42:03.926Z,18.87
2017-10-24T15:44:30.236Z,18.40
2017-10-24T15:46:56.481Z,18.47
2017-10-24T15:49:22.695Z,19.80
2017-10-24T15:51:48.987Z,19.53
2017-10-24T15:57:00.202Z,19.80
2017-10-24T15:59:35.167Z,18.90
2017-10-24T16:02:01.485Z,19.20
2017-10-24T16:04:27.727Z,19.83
2017-10-24T16:06:54.641Z,18.57
2017-10-24T16:09:22.328Z,20.60
2017-10-24T16:11:49.042Z,19.03
2017-10-24T16:14:15.274Z,17.90
2017-10-24T16:16:41.498Z,18.80
2017-10-24T16:19:26.345Z,18.27
2017-10-24T16:21:53.395Z,19.40
2017-10-24T16:24:20.473Z,18.03
2017-10-24T16:26:46.958Z,18.57
2017-10-24T16:29:14.010Z,17.90
2017-10-24T16:31:41.028Z,17.00
2017-10-24T16:34:07.319Z,17.60
2017-10-24T16:36:33.665Z,17.47
2017-10-24T16:39:00.153Z,17.90
2017-10-24T16:41:27.199Z,17.30
2017-10-24T16:43:55.420Z,17.97
2017-10-24T16:46:21.803Z,16.40
2017-10-24T16:48:48.048Z,17.20
2017-10-24T16:53:51.595Z,18.47
2017-10-24T16:56:24.573Z,16.03
2017-10-24T16:58:50.884Z,17.87
2017-10-24T17:01:17.271Z,17.17
2017-10-24T17:03:44.354Z,16.00
2017-10-24T17:06:11.564Z,17.77
2017-10-24T17:08:38.676Z,17.77
2017-10-24T17:11:11.927Z,17.60
2017-10-24T17:13:38.415Z,15.97
2017-10-24T17:16:04.659Z,17.40
2017-10-24T17:18:30.948Z,16.43
2017-10-24T17:20:58.605Z,17.63
2017-10-24T17:23:28.555Z,16.13
2017-10-24T17:25:58.013Z,17.90
2017-10-24T17:28:27.753Z,17.87
2017-10-24T17:30:54.567Z,17.33
2017-10-24T17:33:21.510Z,17.47
2017-10-24T17:35:47.813Z,17.20
2017-10-24T17:38:14.034Z,16.87
2017-10-24T17:40:41.554Z,17.43
2017-10-24T17:43:12.603Z,17.07
2017-10-24T17:45:38.902Z,17.40
2017-10-24T17:48:05.378Z,17.97
2017-10-24T17:50:31.670Z,17.93
2017-10-24T17:53:00.741Z,17.33
2017-10-24T17:55:28.507Z,18.30
2017-10-24T17:58:11.323Z,17.60
2017-10-24T18:00:38.537Z,18.00
2017-10-24T18:03:04.784Z,16.57
2017-10-24T18:05:32.944Z,16.50
2017-10-24T18:07:59.985Z,17.50
2017-10-24T18:10:27.532Z,18.50
2017-10-24T18:12:55.635Z,17.73
2017-10-24T18:15:22.839Z,18.17
2017-10-24T18:17:49.104Z,18.67
2017-10-24T18:20:15.579Z,19.33
2017-10-24T18:22:44.955Z,18.90
2017-10-24T18:25:11.202Z,18.73
2017-10-24T18:27:46.450Z,19.10
2017-10-24T18:30:16.237Z,20.17
2017-10-24T18:32:43.775Z,19.20
2017-10-24T18:35:24.799Z,18.10
2017-10-24T18:37:52.027Z,18.23
2017-10-24T18:40:18.966Z,19.83
2017-10-24T18:42:45.249Z,19.20
2017-10-24T18:45:11.888Z,18.00
2017-10-24T18:47:38.351Z,18.60
2017-10-24T18:50:05.426Z,20.17
2017-10-24T18:52:32.592Z,18.63
2017-10-24T18:54:59.209Z,16.80
2017-10-24T18:57:25.679Z,17.37
2017-10-24T18:59:52.134Z,15.73
2017-10-24T19:02:18.418Z,16.83
2017-10-24T19:04:45.471Z,17.07
2017-10-24T19:07:12.456Z,16.73
2017-10-24T19:09:38.662Z,14.50
2017-10-24T19:12:05.966Z,14.60
2017-10-24T19:14:33.709Z,15.23
2017-10-24T19:17:00.027Z,15.07
2017-10-24T19:19:26.268Z,15.60
2017-10-24T19:21:52.510Z,14.80
2017-10-24T19:24:18.766Z,14.60
2017-10-24T19:26:45.425Z,13.40
2017-10-24T19:29:12.379Z,14.00
2017-10-24T19:31:38.665Z,13.07
2017-10-24T19:34:04.983Z,12.07
2017-10-24T19:36:32.067Z,12.60
2017-10-24T19:38:58.323Z,11.97
2017-10-24T19:41:24.575Z,12.70
2017-10-24T19:43:50.875Z,11.50
2017-10-24T19:46:17.162Z,11.03
2017-10-24T19:48:44.140Z,9.70
2017-10-24T19:51:10.446Z,10.43
2017-10-24T19:53:37.473Z,9.63
2017-10-24T19:56:03.798Z,10.13
2017-10-24T19:58:30.786Z,9.30
2017-10-24T20:00:57.354Z,8.77
2017-10-24T20:03:24.591Z,9.70
2017-10-24T20:06:00.929Z,9.10
2017-10-24T20:08:28.273Z,8.87
2017-10-24T20:10:55.362Z,8.17
2017-10-24T20:13:21.651Z,8.60
2017-10-24T20:15:48.652Z,8.90
2017-10-24T20:18:15.076Z,8.27
2017-10-24T20:20:41.315Z,8.37
2017-10-24T20:23:07.643Z,7.70
2017-10-24T20:25:33.916Z,7.63
2017-10-24T20:28:00.897Z,8.30
2017-10-24T20:30:27.187Z,6.90
2017-10-24T20:32:54.163Z,7.07
2017-10-24T20:35:20.386Z,8.27
2017-10-24T20:37:46.639Z,8.73
2017-10-24T20:40:12.875Z,7.93
2017-10-24T20:42:39.142Z,8.70
2017-10-24T20:45:06.088Z,8.10
2017-10-24T20:47:33.087Z,8.03
2017-10-24T20:49:59.293Z,8.30
2017-10-24T20:52:25.522Z,7.93
2017-10-24T20:54:51.819Z,8.80
2017-10-24T20:57:18.884Z,8.83
2017-10-24T20:59:45.256Z,9.00
2017-10-24T21:02:11.701Z,9.40
2017-10-24T21:04:38.082Z,10.03
2017-10-24T21:07:07.156Z,10.90
2017-10-24T21:09:34.068Z,9.50
2017-10-24T21:12:02.140Z,9.53
2017-10-24T21:14:29.857Z,9.80
2017-10-24T21:16:57.442Z,9.40
2017-10-24T21:19:23.840Z,8.90
2017-10-24T21:21:57.105Z,9.50
2017-10-24T21:24:23.388Z,8.83
2017-10-24T21:26:49.648Z,9.53
2017-10-24T21:29:15.859Z,8.60
2017-10-24T21:31:42.113Z,9.37
2017-10-24T21:34:08.326Z,10.40
2017-10-24T21:36:34.558Z,8.43
2017-10-24T21:39:01.596Z,9.90
2017-10-24T21:41:27.811Z,9.20
2017-10-24T21:43:54.100Z,8.77
2017-10-24T21:46:20.319Z,8.40
2017-10-24T21:48:47.299Z,9.00
2017-10-24T21:51:13.510Z,9.37
2017-10-24T21:53:39.763Z,10.20
2017-10-24T21:56:06.064Z,9.00
2017-10-24T21:58:32.391Z,8.93
2017-10-24T22:00:58.607Z,8.90
2017-10-24T22:03:25.574Z,9.33
2017-10-24T22:05:51.806Z,8.60
2017-10-24T22:08:18.032Z,8.30
2017-10-24T22:10:44.299Z,9.10
2017-10-24T22:13:10.528Z,9.67
2017-10-24T22:15:36.724Z,8.80
2017-10-24T22:18:02.965Z,9.40
2017-10-24T22:20:29.150Z,10.10
2017-10-24T22:22:55.426Z,9.77
2017-10-24T22:25:21.746Z,10.20
2017-10-24T22:27:47.997Z,9.73
2017-10-24T22:30:14.235Z,11.50
2017-10-24T22:32:40.543Z,12.30
2017-10-24T22:35:07.482Z,12.50
2017-10-24T22:37:33.831Z,12.63
2017-10-24T22:40:00.057Z,11.70
2017-10-24T22:42:26.286Z,12.20
2017-10-24T22:44:52.533Z,11.10
2017-10-24T22:47:19.488Z,11.50
2017-10-24T22:49:46.458Z,11.67
2017-10-24T22:52:12.659Z,12.60
2017-10-24T22:54:39.683Z,12.77
2017-10-24T22:57:07.602Z,12.80
2017-10-24T22:59:33.883Z,12.50
2017-10-24T23:02:01.627Z,12.80
2017-10-24T23:04:27.906Z,12.93
2017-10-24T23:06:54.181Z,13.30
2017-10-24T23:09:21.378Z,12.53
2017-10-24T23:11:48.348Z,11.90
2017-10-24T23:14:14.757Z,12.53
2017-10-24T23:16:40.999Z,12.90
2017-10-24T23:19:07.278Z,13.30
2017-10-24T23:21:33.525Z,13.83
2017-10-24T23:24:00.505Z,13.80
2017-10-24T23:26:26.717Z,15.93
2017-10-24T23:28:52.973Z,14.90
2017-10-24T23:31:19.334Z,14.90
2017-10-24T23:33:45.560Z,15.80
2017-10-24T23:36:11.897Z,15.60
2017-10-24T23:38:38.143Z,16.83
2017-10-24T23:41:04.351Z,17.10
2017-10-24T23:43:30.578Z,17.37
2017-10-24T23:45:56.777Z,17.37
2017-10-24T23:48:23.006Z,19.00
2017-10-24T23:50:49.242Z,16.73
2017-10-24T23:53:15.524Z,20.17
2017-10-24T23:55:41.738Z,18.00
2017-10-24T23:58:08.787Z,17.87
